Terminal Aerodrome Forecast
Issued by NWS

Home | Current Version | Previous Version | Text Only | Print | Product List | Glossary On
Versions: 1 2 3 4 5 6 7 8 9 10 11 12 13 14 15 16 17 18 19 20
000
FTUS44 KOHX 281122
TAFCKV
TAF
KCKV 281122Z 2812/2912 00000KT 3SM BR SKC
     FM281330 11002KT P6SM SKC
     FM282000 13004KT P6SM VCTS BKN050CB BKN100
     FM290100 06004KT P6SM SCT100
     FM290800 03002KT 4SM BR BKN250=

USA.gov is the U.S. government's official web portal to all federal, state and local government web resources and services.